sensor_id;sensor_type;location;lat;lon;timestamp;temperature;humidity
18041;DHT22;9145;48.588;9.250;2023-08-08T00:01:56;13.80;99.90
18041;DHT22;9145;48.588;9.250;2023-08-08T00:04:23;13.70;99.90
18041;DHT22;9145;48.588;9.250;2023-08-08T00:06:51;13.70;99.90
18041;DHT22;9145;48.588;9.250;2023-08-08T00:09:18;13.70;99.90
18041;DHT22;9145;48.588;9.250;2023-08-08T00:11:45;13.60;99.90
18041;DHT22;9145;48.588;9.250;2023-08-08T00:14:11;13.50;99.90
18041;DHT22;9145;48.588;9.250;2023-08-08T00:16:38;13.40;99.90
18041;DHT22;9145;48.588;9.250;2023-08-08T00:19:05;13.40;99.90
18041;DHT22;9145;48.588;9.250;2023-08-08T00:21:32;13.30;99.90
18041;DHT22;9145;48.588;9.250;2023-08-08T00:24:00;13.20;99.90
18041;DHT22;9145;48.588;9.250;2023-08-08T00:26:28;13.20;99.90
18041;DHT22;9145;48.588;9.250;2023-08-08T00:28:55;13.30;99.90
18041;DHT22;9145;48.588;9.250;2023-08-08T00:31:21;13.30;99.90
18041;DHT22;9145;48.588;9.250;2023-08-08T00:33:48;13.30;99.90
18041;DHT22;9145;48.588;9.250;2023-08-08T00:36:15;13.30;99.90
18041;DHT22;9145;48.588;9.250;2023-08-08T00:38:42;13.30;99.90
18041;DHT22;9145;48.588;9.250;2023-08-08T00:41:10;13.30;99.90
18041;DHT22;9145;48.588;9.250;2023-08-08T00:43:37;13.30;99.90
18041;DHT22;9145;48.588;9.250;2023-08-08T00:46:04;13.30;99.90
18041;DHT22;9145;48.588;9.250;2023-08-08T00:48:31;13.20;99.90
18041;DHT22;9145;48.588;9.250;2023-08-08T00:50:59;13.30;99.90
18041;DHT22;9145;48.588;9.250;2023-08-08T00:53:26;13.20;99.90
18041;DHT22;9145;48.588;9.250;2023-08-08T00:55:56;13.20;99.90
18041;DHT22;9145;48.588;9.250;2023-08-08T00:58:24;13.20;99.90
18041;DHT22;9145;48.588;9.250;2023-08-08T01:00:52;13.20;99.90
18041;DHT22;9145;48.588;9.250;2023-08-08T01:03:22;13.30;99.90
18041;DHT22;9145;48.588;9.250;2023-08-08T01:05:54;13.20;99.90
18041;DHT22;9145;48.588;9.250;2023-08-08T01:08:29;13.30;99.90
18041;DHT22;9145;48.588;9.250;2023-08-08T01:10:59;13.40;99.90
18041;DHT22;9145;48.588;9.250;2023-08-08T01:13:30;13.40;99.90
18041;DHT22;9145;48.588;9.250;2023-08-08T01:15:58;13.40;99.90
18041;DHT22;9145;48.588;9.250;2023-08-08T01:18:27;13.40;99.90
18041;DHT22;9145;48.588;9.250;2023-08-08T01:20:54;13.40;99.90
18041;DHT22;9145;48.588;9.250;2023-08-08T01:23:26;13.40;99.90
18041;DHT22;9145;48.588;9.250;2023-08-08T01:25:56;13.40;99.90
18041;DHT22;9145;48.588;9.250;2023-08-08T01:28:23;13.30;99.90
18041;DHT22;9145;48.588;9.250;2023-08-08T01:30:51;13.40;99.90
18041;DHT22;9145;48.588;9.250;2023-08-08T01:33:19;13.40;99.90
18041;DHT22;9145;48.588;9.250;2023-08-08T01:35:50;13.40;99.90
18041;DHT22;9145;48.588;9.250;2023-08-08T01:38:23;13.40;99.90
18041;DHT22;9145;48.588;9.250;2023-08-08T01:40:51;13.40;99.90
18041;DHT22;9145;48.588;9.250;2023-08-08T01:43:20;13.40;99.90
18041;DHT22;9145;48.588;9.250;2023-08-08T01:45:47;13.40;99.90
18041;DHT22;9145;48.588;9.250;2023-08-08T01:48:14;13.50;99.90
18041;DHT22;9145;48.588;9.250;2023-08-08T01:50:41;13.40;99.90
18041;DHT22;9145;48.588;9.250;2023-08-08T01:53:08;13.40;99.90
18041;DHT22;9145;48.588;9.250;2023-08-08T01:55:35;13.40;99.90
18041;DHT22;9145;48.588;9.250;2023-08-08T01:58:02;13.40;99.90
18041;DHT22;9145;48.588;9.250;2023-08-08T02:00:30;13.40;99.90
18041;DHT22;9145;48.588;9.250;2023-08-08T02:02:57;13.40;99.90
18041;DHT22;9145;48.588;9.250;2023-08-08T02:05:24;13.40;99.90
18041;DHT22;9145;48.588;9.250;2023-08-08T02:07:52;13.40;99.90
18041;DHT22;9145;48.588;9.250;2023-08-08T02:10:19;13.40;99.90
18041;DHT22;9145;48.588;9.250;2023-08-08T02:12:46;13.40;99.90
18041;DHT22;9145;48.588;9.250;2023-08-08T02:15:13;13.40;99.90
18041;DHT22;9145;48.588;9.250;2023-08-08T02:17:41;13.40;99.90
18041;DHT22;9145;48.588;9.250;2023-08-08T02:20:09;13.40;99.90
18041;DHT22;9145;48.588;9.250;2023-08-08T02:22:37;13.40;99.90
18041;DHT22;9145;48.588;9.250;2023-08-08T02:25:04;13.30;99.90
18041;DHT22;9145;48.588;9.250;2023-08-08T02:27:31;13.30;99.90
18041;DHT22;9145;48.588;9.250;2023-08-08T02:29:58;13.30;99.90
18041;DHT22;9145;48.588;9.250;2023-08-08T02:32:25;13.30;99.90
18041;DHT22;9145;48.588;9.250;2023-08-08T02:34:53;13.40;99.90
18041;DHT22;9145;48.588;9.250;2023-08-08T02:37:20;13.40;99.90
18041;DHT22;9145;48.588;9.250;2023-08-08T02:39:47;13.40;99.90
18041;DHT22;9145;48.588;9.250;2023-08-08T02:42:14;13.40;99.90
18041;DHT22;9145;48.588;9.250;2023-08-08T02:44:40;13.40;99.90
18041;DHT22;9145;48.588;9.250;2023-08-08T02:47:07;13.40;99.90
18041;DHT22;9145;48.588;9.250;2023-08-08T02:49:34;13.40;99.90
18041;DHT22;9145;48.588;9.250;2023-08-08T02:52:03;13.40;99.90
18041;DHT22;9145;48.588;9.250;2023-08-08T02:54:30;13.40;99.90
18041;DHT22;9145;48.588;9.250;2023-08-08T02:56:56;13.40;99.90
18041;DHT22;9145;48.588;9.250;2023-08-08T02:59:23;13.30;99.90
18041;DHT22;9145;48.588;9.250;2023-08-08T03:01:50;13.40;99.90
18041;DHT22;9145;48.588;9.250;2023-08-08T03:04:17;13.40;99.90
18041;DHT22;9145;48.588;9.250;2023-08-08T03:06:44;13.40;99.90
18041;DHT22;9145;48.588;9.250;2023-08-08T03:09:12;13.40;99.90
18041;DHT22;9145;48.588;9.250;2023-08-08T03:11:39;13.50;99.90
18041;DHT22;9145;48.588;9.250;2023-08-08T03:14:07;13.50;99.90
18041;DHT22;9145;48.588;9.250;2023-08-08T03:16:34;13.40;99.90
18041;DHT22;9145;48.588;9.250;2023-08-08T03:19:01;13.40;99.90
18041;DHT22;9145;48.588;9.250;2023-08-08T03:21:28;13.30;99.90
18041;DHT22;9145;48.588;9.250;2023-08-08T03:23:54;13.30;99.90
18041;DHT22;9145;48.588;9.250;2023-08-08T03:26:23;13.30;99.90
18041;DHT22;9145;48.588;9.250;2023-08-08T03:28:50;13.30;99.90
18041;DHT22;9145;48.588;9.250;2023-08-08T03:31:18;13.30;99.90
18041;DHT22;9145;48.588;9.250;2023-08-08T03:33:45;13.30;99.90
18041;DHT22;9145;48.588;9.250;2023-08-08T03:36:13;13.30;99.90
18041;DHT22;9145;48.588;9.250;2023-08-08T03:38:40;13.30;99.90
18041;DHT22;9145;48.588;9.250;2023-08-08T03:41:09;13.40;99.90
18041;DHT22;9145;48.588;9.250;2023-08-08T03:43:38;13.40;99.90
18041;DHT22;9145;48.588;9.250;2023-08-08T03:46:05;13.40;99.90
18041;DHT22;9145;48.588;9.250;2023-08-08T03:48:31;13.40;99.90
18041;DHT22;9145;48.588;9.250;2023-08-08T03:50:58;13.40;99.90
18041;DHT22;9145;48.588;9.250;2023-08-08T03:53:25;13.40;99.90
18041;DHT22;9145;48.588;9.250;2023-08-08T03:55:52;13.40;99.90
18041;DHT22;9145;48.588;9.250;2023-08-08T03:58:19;13.40;99.90
18041;DHT22;9145;48.588;9.250;2023-08-08T04:00:47;13.40;99.90
18041;DHT22;9145;48.588;9.250;2023-08-08T04:03:15;13.40;99.90
18041;DHT22;9145;48.588;9.250;2023-08-08T04:05:44;13.40;99.90
18041;DHT22;9145;48.588;9.250;2023-08-08T04:08:15;13.40;99.90
18041;DHT22;9145;48.588;9.250;2023-08-08T04:10:43;13.40;99.90
18041;DHT22;9145;48.588;9.250;2023-08-08T04:13:10;13.40;99.90
18041;DHT22;9145;48.588;9.250;2023-08-08T04:15:37;13.50;99.90
18041;DHT22;9145;48.588;9.250;2023-08-08T04:18:05;13.50;99.90
18041;DHT22;9145;48.588;9.250;2023-08-08T04:20:32;13.40;99.90
18041;DHT22;9145;48.588;9.250;2023-08-08T04:22:59;13.40;99.90
18041;DHT22;9145;48.588;9.250;2023-08-08T04:25:27;13.40;99.90
18041;DHT22;9145;48.588;9.250;2023-08-08T04:27:54;13.40;99.90
18041;DHT22;9145;48.588;9.250;2023-08-08T04:30:21;13.40;99.90
18041;DHT22;9145;48.588;9.250;2023-08-08T04:32:48;13.40;99.90
18041;DHT22;9145;48.588;9.250;2023-08-08T04:35:16;13.40;99.90
18041;DHT22;9145;48.588;9.250;2023-08-08T04:37:43;13.50;99.90
18041;DHT22;9145;48.588;9.250;2023-08-08T04:40:10;13.50;99.90
18041;DHT22;9145;48.588;9.250;2023-08-08T04:42:37;13.50;99.90
18041;DHT22;9145;48.588;9.250;2023-08-08T04:45:05;13.50;99.90
18041;DHT22;9145;48.588;9.250;2023-08-08T04:47:32;13.50;99.90
18041;DHT22;9145;48.588;9.250;2023-08-08T04:49:59;13.50;99.90
18041;DHT22;9145;48.588;9.250;2023-08-08T04:52:27;13.50;99.90
18041;DHT22;9145;48.588;9.250;2023-08-08T04:54:54;13.50;99.90
18041;DHT22;9145;48.588;9.250;2023-08-08T04:57:21;13.50;99.90
18041;DHT22;9145;48.588;9.250;2023-08-08T04:59:48;13.50;99.90
18041;DHT22;9145;48.588;9.250;2023-08-08T05:02:15;13.50;99.90
18041;DHT22;9145;48.588;9.250;2023-08-08T05:04:42;13.60;99.90
18041;DHT22;9145;48.588;9.250;2023-08-08T05:07:09;13.60;99.90
18041;DHT22;9145;48.588;9.250;2023-08-08T05:09:37;13.60;99.90
18041;DHT22;9145;48.588;9.250;2023-08-08T05:12:04;13.60;99.90
18041;DHT22;9145;48.588;9.250;2023-08-08T05:14:31;13.60;99.90
18041;DHT22;9145;48.588;9.250;2023-08-08T05:16:58;13.60;99.90
18041;DHT22;9145;48.588;9.250;2023-08-08T05:19:25;13.60;99.90
18041;DHT22;9145;48.588;9.250;2023-08-08T05:21:52;13.60;99.90
18041;DHT22;9145;48.588;9.250;2023-08-08T05:24:19;13.70;99.90
18041;DHT22;9145;48.588;9.250;2023-08-08T05:26:47;13.60;99.90
18041;DHT22;9145;48.588;9.250;2023-08-08T05:29:14;13.70;99.90
18041;DHT22;9145;48.588;9.250;2023-08-08T05:31:41;13.70;99.90
18041;DHT22;9145;48.588;9.250;2023-08-08T05:34:08;13.70;99.90
18041;DHT22;9145;48.588;9.250;2023-08-08T05:36:35;13.70;99.90
18041;DHT22;9145;48.588;9.250;2023-08-08T05:39:01;13.80;99.90
18041;DHT22;9145;48.588;9.250;2023-08-08T05:41:29;13.80;99.90
18041;DHT22;9145;48.588;9.250;2023-08-08T05:43:57;13.80;99.90
18041;DHT22;9145;48.588;9.250;2023-08-08T05:46:24;13.80;99.90
18041;DHT22;9145;48.588;9.250;2023-08-08T05:48:51;13.90;99.90
18041;DHT22;9145;48.588;9.250;2023-08-08T05:51:17;13.90;99.90
18041;DHT22;9145;48.588;9.250;2023-08-08T05:53:44;13.90;99.90
18041;DHT22;9145;48.588;9.250;2023-08-08T05:56:11;14.00;99.90
18041;DHT22;9145;48.588;9.250;2023-08-08T05:58:38;14.00;99.90
18041;DHT22;9145;48.588;9.250;2023-08-08T06:01:06;14.00;99.90
18041;DHT22;9145;48.588;9.250;2023-08-08T06:03:35;14.10;99.90
18041;DHT22;9145;48.588;9.250;2023-08-08T06:06:03;14.10;99.90
18041;DHT22;9145;48.588;9.250;2023-08-08T06:08:30;14.10;99.90
18041;DHT22;9145;48.588;9.250;2023-08-08T06:10:57;14.00;99.90
18041;DHT22;9145;48.588;9.250;2023-08-08T06:13:24;14.00;99.90
18041;DHT22;9145;48.588;9.250;2023-08-08T06:15:50;14.00;99.90
18041;DHT22;9145;48.588;9.250;2023-08-08T06:18:19;14.00;99.90
18041;DHT22;9145;48.588;9.250;2023-08-08T06:20:46;14.00;99.90
18041;DHT22;9145;48.588;9.250;2023-08-08T06:23:12;14.10;99.90
18041;DHT22;9145;48.588;9.250;2023-08-08T06:25:40;14.20;99.90
18041;DHT22;9145;48.588;9.250;2023-08-08T06:28:07;14.30;99.90
18041;DHT22;9145;48.588;9.250;2023-08-08T06:30:34;14.30;99.90
18041;DHT22;9145;48.588;9.250;2023-08-08T06:33:01;14.40;99.90
18041;DHT22;9145;48.588;9.250;2023-08-08T06:35:29;14.50;99.90
18041;DHT22;9145;48.588;9.250;2023-08-08T06:37:56;14.60;99.90
18041;DHT22;9145;48.588;9.250;2023-08-08T06:40:23;14.70;99.90
18041;DHT22;9145;48.588;9.250;2023-08-08T06:42:50;14.70;99.90
18041;DHT22;9145;48.588;9.250;2023-08-08T06:45:17;14.80;99.90
18041;DHT22;9145;48.588;9.250;2023-08-08T06:47:43;15.00;99.90
18041;DHT22;9145;48.588;9.250;2023-08-08T06:50:10;15.10;99.90
18041;DHT22;9145;48.588;9.250;2023-08-08T06:52:39;15.10;99.90
18041;DHT22;9145;48.588;9.250;2023-08-08T06:55:06;15.20;99.90
18041;DHT22;9145;48.588;9.250;2023-08-08T06:57:34;15.30;99.90
18041;DHT22;9145;48.588;9.250;2023-08-08T07:00:01;15.40;99.90
18041;DHT22;9145;48.588;9.250;2023-08-08T07:02:30;15.40;99.90
18041;DHT22;9145;48.588;9.250;2023-08-08T07:04:57;15.60;99.90
18041;DHT22;9145;48.588;9.250;2023-08-08T07:07:24;15.70;99.90
18041;DHT22;9145;48.588;9.250;2023-08-08T07:09:52;15.80;99.90
18041;DHT22;9145;48.588;9.250;2023-08-08T07:12:20;15.90;99.90
18041;DHT22;9145;48.588;9.250;2023-08-08T07:14:47;16.00;99.90
18041;DHT22;9145;48.588;9.250;2023-08-08T07:17:14;16.00;99.90
18041;DHT22;9145;48.588;9.250;2023-08-08T07:19:41;16.10;99.90
18041;DHT22;9145;48.588;9.250;2023-08-08T07:22:08;16.10;99.90
18041;DHT22;9145;48.588;9.250;2023-08-08T07:24:35;16.10;99.90
18041;DHT22;9145;48.588;9.250;2023-08-08T07:27:05;16.30;99.90
18041;DHT22;9145;48.588;9.250;2023-08-08T07:29:32;16.30;99.90
18041;DHT22;9145;48.588;9.250;2023-08-08T07:32:02;16.40;99.90
18041;DHT22;9145;48.588;9.250;2023-08-08T07:34:30;16.40;99.90
18041;DHT22;9145;48.588;9.250;2023-08-08T07:36:57;16.50;99.90
18041;DHT22;9145;48.588;9.250;2023-08-08T07:39:24;16.60;99.90
18041;DHT22;9145;48.588;9.250;2023-08-08T07:41:52;16.70;99.90
18041;DHT22;9145;48.588;9.250;2023-08-08T07:44:20;16.80;99.90
18041;DHT22;9145;48.588;9.250;2023-08-08T07:46:47;16.90;99.90
18041;DHT22;9145;48.588;9.250;2023-08-08T07:49:14;16.90;99.90
18041;DHT22;9145;48.588;9.250;2023-08-08T07:51:41;17.00;99.90
18041;DHT22;9145;48.588;9.250;2023-08-08T07:54:07;17.20;99.90
18041;DHT22;9145;48.588;9.250;2023-08-08T07:56:36;17.30;99.90
18041;DHT22;9145;48.588;9.250;2023-08-08T07:59:03;17.40;99.90
18041;DHT22;9145;48.588;9.250;2023-08-08T08:01:32;17.40;99.90
18041;DHT22;9145;48.588;9.250;2023-08-08T08:03:59;17.50;99.90
18041;DHT22;9145;48.588;9.250;2023-08-08T08:06:26;17.60;99.90
18041;DHT22;9145;48.588;9.250;2023-08-08T08:08:52;17.70;99.90
18041;DHT22;9145;48.588;9.250;2023-08-08T08:11:19;17.80;99.90
18041;DHT22;9145;48.588;9.250;2023-08-08T08:13:46;17.90;99.90
18041;DHT22;9145;48.588;9.250;2023-08-08T08:16:13;18.00;99.90
18041;DHT22;9145;48.588;9.250;2023-08-08T08:18:41;18.00;99.90
18041;DHT22;9145;48.588;9.250;2023-08-08T08:21:08;18.10;99.90
18041;DHT22;9145;48.588;9.250;2023-08-08T08:23:35;18.10;99.90
18041;DHT22;9145;48.588;9.250;2023-08-08T08:26:01;18.20;99.90
18041;DHT22;9145;48.588;9.250;2023-08-08T08:28:28;18.30;99.90
18041;DHT22;9145;48.588;9.250;2023-08-08T08:30:55;18.40;99.90
18041;DHT22;9145;48.588;9.250;2023-08-08T08:33:22;18.50;99.90
18041;DHT22;9145;48.588;9.250;2023-08-08T08:35:50;18.50;99.90
18041;DHT22;9145;48.588;9.250;2023-08-08T08:38:17;18.50;99.90
18041;DHT22;9145;48.588;9.250;2023-08-08T08:40:44;18.40;99.90
18041;DHT22;9145;48.588;9.250;2023-08-08T08:43:13;18.40;99.90
18041;DHT22;9145;48.588;9.250;2023-08-08T08:45:44;18.40;99.90
18041;DHT22;9145;48.588;9.250;2023-08-08T08:48:17;18.50;99.90
18041;DHT22;9145;48.588;9.250;2023-08-08T08:50:47;18.40;99.90
18041;DHT22;9145;48.588;9.250;2023-08-08T08:53:16;18.40;99.90
18041;DHT22;9145;48.588;9.250;2023-08-08T08:55:44;18.60;99.90
18041;DHT22;9145;48.588;9.250;2023-08-08T08:58:13;18.70;99.90
18041;DHT22;9145;48.588;9.250;2023-08-08T09:00:40;19.00;99.90
18041;DHT22;9145;48.588;9.250;2023-08-08T09:03:08;19.00;99.90
18041;DHT22;9145;48.588;9.250;2023-08-08T09:05:35;18.90;99.90
18041;DHT22;9145;48.588;9.250;2023-08-08T09:08:03;18.90;99.90
18041;DHT22;9145;48.588;9.250;2023-08-08T09:10:32;18.90;99.90
18041;DHT22;9145;48.588;9.250;2023-08-08T09:13:00;18.90;99.90
18041;DHT22;9145;48.588;9.250;2023-08-08T09:15:30;19.00;99.90
18041;DHT22;9145;48.588;9.250;2023-08-08T09:17:57;19.20;99.90
18041;DHT22;9145;48.588;9.250;2023-08-08T09:20:25;19.40;99.90
18041;DHT22;9145;48.588;9.250;2023-08-08T09:22:53;19.40;99.90
18041;DHT22;9145;48.588;9.250;2023-08-08T09:25:20;19.50;99.90
18041;DHT22;9145;48.588;9.250;2023-08-08T09:27:48;19.60;99.90
18041;DHT22;9145;48.588;9.250;2023-08-08T09:30:15;19.70;99.90
18041;DHT22;9145;48.588;9.250;2023-08-08T09:32:43;19.70;99.90
18041;DHT22;9145;48.588;9.250;2023-08-08T09:35:10;19.90;99.90
18041;DHT22;9145;48.588;9.250;2023-08-08T09:37:37;19.80;99.90
18041;DHT22;9145;48.588;9.250;2023-08-08T09:40:05;19.80;99.90
18041;DHT22;9145;48.588;9.250;2023-08-08T09:42:33;19.50;99.90
18041;DHT22;9145;48.588;9.250;2023-08-08T09:45:03;19.50;99.90
18041;DHT22;9145;48.588;9.250;2023-08-08T09:47:30;19.50;99.90
18041;DHT22;9145;48.588;9.250;2023-08-08T09:49:59;19.60;99.90
18041;DHT22;9145;48.588;9.250;2023-08-08T09:52:27;19.60;99.90
18041;DHT22;9145;48.588;9.250;2023-08-08T09:54:55;19.50;99.90
18041;DHT22;9145;48.588;9.250;2023-08-08T09:57:23;19.40;99.90
18041;DHT22;9145;48.588;9.250;2023-08-08T09:59:51;19.50;99.90
18041;DHT22;9145;48.588;9.250;2023-08-08T10:02:19;19.80;99.90
18041;DHT22;9145;48.588;9.250;2023-08-08T10:04:47;20.10;99.90
18041;DHT22;9145;48.588;9.250;2023-08-08T10:07:14;20.20;99.90
18041;DHT22;9145;48.588;9.250;2023-08-08T10:09:41;20.20;99.90
18041;DHT22;9145;48.588;9.250;2023-08-08T10:12:08;20.20;99.90
18041;DHT22;9145;48.588;9.250;2023-08-08T10:14:37;20.20;99.90
18041;DHT22;9145;48.588;9.250;2023-08-08T10:17:05;20.20;99.90
18041;DHT22;9145;48.588;9.250;2023-08-08T10:19:33;20.40;99.90
18041;DHT22;9145;48.588;9.250;2023-08-08T10:22:04;20.40;99.90
18041;DHT22;9145;48.588;9.250;2023-08-08T10:24:33;20.40;99.90
18041;DHT22;9145;48.588;9.250;2023-08-08T10:27:01;20.30;99.90
18041;DHT22;9145;48.588;9.250;2023-08-08T10:29:31;20.40;99.90
18041;DHT22;9145;48.588;9.250;2023-08-08T10:32:00;20.40;99.90
18041;DHT22;9145;48.588;9.250;2023-08-08T10:34:36;20.50;99.90
18041;DHT22;9145;48.588;9.250;2023-08-08T10:37:05;20.70;99.90
18041;DHT22;9145;48.588;9.250;2023-08-08T10:39:32;20.80;99.90
18041;DHT22;9145;48.588;9.250;2023-08-08T10:42:02;20.70;99.90
18041;DHT22;9145;48.588;9.250;2023-08-08T10:44:30;20.60;99.90
18041;DHT22;9145;48.588;9.250;2023-08-08T10:47:00;20.60;99.90
18041;DHT22;9145;48.588;9.250;2023-08-08T10:49:27;20.70;99.90
18041;DHT22;9145;48.588;9.250;2023-08-08T10:51:54;20.80;99.90
18041;DHT22;9145;48.588;9.250;2023-08-08T10:54:23;21.00;99.90
18041;DHT22;9145;48.588;9.250;2023-08-08T10:56:55;21.00;99.90
18041;DHT22;9145;48.588;9.250;2023-08-08T10:59:24;20.90;99.90
18041;DHT22;9145;48.588;9.250;2023-08-08T11:01:52;20.80;99.90
18041;DHT22;9145;48.588;9.250;2023-08-08T11:04:23;20.90;99.90
18041;DHT22;9145;48.588;9.250;2023-08-08T11:06:53;21.10;99.90
18041;DHT22;9145;48.588;9.250;2023-08-08T11:09:20;21.30;99.90
18041;DHT22;9145;48.588;9.250;2023-08-08T11:11:48;21.40;99.90
18041;DHT22;9145;48.588;9.250;2023-08-08T11:14:17;21.40;99.90
18041;DHT22;9145;48.588;9.250;2023-08-08T11:16:45;21.20;99.90
18041;DHT22;9145;48.588;9.250;2023-08-08T11:19:12;21.10;99.90
18041;DHT22;9145;48.588;9.250;2023-08-08T11:21:40;21.20;99.90
18041;DHT22;9145;48.588;9.250;2023-08-08T11:24:08;21.40;99.90
18041;DHT22;9145;48.588;9.250;2023-08-08T11:26:36;21.60;99.90
18041;DHT22;9145;48.588;9.250;2023-08-08T11:29:05;21.40;99.90
18041;DHT22;9145;48.588;9.250;2023-08-08T11:31:34;21.00;99.90
18041;DHT22;9145;48.588;9.250;2023-08-08T11:34:01;20.90;99.90
18041;DHT22;9145;48.588;9.250;2023-08-08T11:36:29;21.20;99.90
18041;DHT22;9145;48.588;9.250;2023-08-08T11:38:57;21.50;99.90
18041;DHT22;9145;48.588;9.250;2023-08-08T11:41:24;21.90;99.90
18041;DHT22;9145;48.588;9.250;2023-08-08T11:43:52;21.60;99.90
18041;DHT22;9145;48.588;9.250;2023-08-08T11:46:23;21.30;99.90
18041;DHT22;9145;48.588;9.250;2023-08-08T11:48:51;21.10;99.90
18041;DHT22;9145;48.588;9.250;2023-08-08T11:51:17;21.30;99.90
18041;DHT22;9145;48.588;9.250;2023-08-08T11:53:48;21.60;99.90
18041;DHT22;9145;48.588;9.250;2023-08-08T11:56:18;22.10;99.90
18041;DHT22;9145;48.588;9.250;2023-08-08T11:58:45;22.10;99.90
18041;DHT22;9145;48.588;9.250;2023-08-08T12:01:12;22.20;99.90
18041;DHT22;9145;48.588;9.250;2023-08-08T12:03:41;22.00;99.90
18041;DHT22;9145;48.588;9.250;2023-08-08T12:06:14;21.80;99.90
18041;DHT22;9145;48.588;9.250;2023-08-08T12:08:42;22.00;99.90
18041;DHT22;9145;48.588;9.250;2023-08-08T12:11:10;22.20;99.80
18041;DHT22;9145;48.588;9.250;2023-08-08T12:13:38;22.30;99.90
18041;DHT22;9145;48.588;9.250;2023-08-08T12:16:06;22.50;99.90
18041;DHT22;9145;48.588;9.250;2023-08-08T12:18:35;22.70;99.90
18041;DHT22;9145;48.588;9.250;2023-08-08T12:21:04;22.60;99.90
18041;DHT22;9145;48.588;9.250;2023-08-08T12:23:32;22.60;99.00
18041;DHT22;9145;48.588;9.250;2023-08-08T12:26:00;22.70;99.60
18041;DHT22;9145;48.588;9.250;2023-08-08T12:28:29;22.80;99.90
18041;DHT22;9145;48.588;9.250;2023-08-08T12:30:55;23.10;99.60
18041;DHT22;9145;48.588;9.250;2023-08-08T12:33:22;22.80;98.70
18041;DHT22;9145;48.588;9.250;2023-08-08T12:35:49;22.60;98.40
18041;DHT22;9145;48.588;9.250;2023-08-08T12:38:17;22.70;99.90
18041;DHT22;9145;48.588;9.250;2023-08-08T12:40:44;23.00;98.80
18041;DHT22;9145;48.588;9.250;2023-08-08T12:43:11;23.00;99.50
18041;DHT22;9145;48.588;9.250;2023-08-08T12:45:42;23.20;99.80
18041;DHT22;9145;48.588;9.250;2023-08-08T12:48:09;23.20;98.60
18041;DHT22;9145;48.588;9.250;2023-08-08T12:50:36;23.40;97.30
18041;DHT22;9145;48.588;9.250;2023-08-08T12:53:03;23.30;98.20
18041;DHT22;9145;48.588;9.250;2023-08-08T12:55:31;23.30;99.50
18041;DHT22;9145;48.588;9.250;2023-08-08T12:57:58;23.30;99.70
18041;DHT22;9145;48.588;9.250;2023-08-08T13:00:25;23.20;98.80
18041;DHT22;9145;48.588;9.250;2023-08-08T13:02:52;23.50;99.70
18041;DHT22;9145;48.588;9.250;2023-08-08T13:05:19;23.50;97.90
18041;DHT22;9145;48.588;9.250;2023-08-08T13:07:46;23.20;99.70
18041;DHT22;9145;48.588;9.250;2023-08-08T13:10:13;23.20;97.90
18041;DHT22;9145;48.588;9.250;2023-08-08T13:12:41;23.20;98.70
18041;DHT22;9145;48.588;9.250;2023-08-08T13:15:09;23.50;98.60
18041;DHT22;9145;48.588;9.250;2023-08-08T13:17:36;23.50;98.30
18041;DHT22;9145;48.588;9.250;2023-08-08T13:20:03;23.70;99.10
18041;DHT22;9145;48.588;9.250;2023-08-08T13:22:30;23.50;98.80
18041;DHT22;9145;48.588;9.250;2023-08-08T13:24:57;22.80;98.60
18041;DHT22;9145;48.588;9.250;2023-08-08T13:27:24;22.40;98.70
18041;DHT22;9145;48.588;9.250;2023-08-08T13:29:52;22.10;98.80
18041;DHT22;9145;48.588;9.250;2023-08-08T13:32:19;21.90;98.90
18041;DHT22;9145;48.588;9.250;2023-08-08T13:34:45;21.70;99.90
18041;DHT22;9145;48.588;9.250;2023-08-08T13:37:12;21.70;99.90
18041;DHT22;9145;48.588;9.250;2023-08-08T13:39:39;21.70;99.90
18041;DHT22;9145;48.588;9.250;2023-08-08T13:42:07;21.60;99.90
18041;DHT22;9145;48.588;9.250;2023-08-08T13:44:34;21.80;99.90
18041;DHT22;9145;48.588;9.250;2023-08-08T13:47:02;22.00;99.90
18041;DHT22;9145;48.588;9.250;2023-08-08T13:49:29;22.00;99.90
18041;DHT22;9145;48.588;9.250;2023-08-08T13:51:56;22.00;99.90
18041;DHT22;9145;48.588;9.250;2023-08-08T13:54:23;21.90;99.90
18041;DHT22;9145;48.588;9.250;2023-08-08T13:56:50;21.80;99.90
18041;DHT22;9145;48.588;9.250;2023-08-08T13:59:17;21.90;99.90
18041;DHT22;9145;48.588;9.250;2023-08-08T14:01:44;21.90;99.90
18041;DHT22;9145;48.588;9.250;2023-08-08T14:04:12;21.90;99.90
18041;DHT22;9145;48.588;9.250;2023-08-08T14:06:39;21.70;99.90
18041;DHT22;9145;48.588;9.250;2023-08-08T14:09:06;21.70;99.90
18041;DHT22;9145;48.588;9.250;2023-08-08T14:11:33;21.70;99.90
18041;DHT22;9145;48.588;9.250;2023-08-08T14:14:00;21.80;99.90
18041;DHT22;9145;48.588;9.250;2023-08-08T14:16:27;21.70;99.90
18041;DHT22;9145;48.588;9.250;2023-08-08T14:18:54;21.70;99.90
18041;DHT22;9145;48.588;9.250;2023-08-08T14:21:22;21.60;99.90
18041;DHT22;9145;48.588;9.250;2023-08-08T14:23:49;21.50;99.90
18041;DHT22;9145;48.588;9.250;2023-08-08T14:26:15;21.40;99.90
18041;DHT22;9145;48.588;9.250;2023-08-08T14:28:42;21.30;99.90
18041;DHT22;9145;48.588;9.250;2023-08-08T14:31:09;21.20;99.90
18041;DHT22;9145;48.588;9.250;2023-08-08T14:33:36;21.10;99.90
18041;DHT22;9145;48.588;9.250;2023-08-08T14:36:03;21.00;99.90
18041;DHT22;9145;48.588;9.250;2023-08-08T14:38:35;20.90;99.90
18041;DHT22;9145;48.588;9.250;2023-08-08T14:41:02;20.80;99.90
18041;DHT22;9145;48.588;9.250;2023-08-08T14:43:29;20.80;99.90
18041;DHT22;9145;48.588;9.250;2023-08-08T14:45:56;20.90;99.90
18041;DHT22;9145;48.588;9.250;2023-08-08T14:48:23;20.90;99.90
18041;DHT22;9145;48.588;9.250;2023-08-08T14:50:49;20.90;99.90
18041;DHT22;9145;48.588;9.250;2023-08-08T14:53:16;21.20;99.90
18041;DHT22;9145;48.588;9.250;2023-08-08T14:55:44;21.40;99.90
18041;DHT22;9145;48.588;9.250;2023-08-08T14:58:13;21.50;99.90
18041;DHT22;9145;48.588;9.250;2023-08-08T15:00:40;21.40;99.90
18041;DHT22;9145;48.588;9.250;2023-08-08T15:03:07;21.40;99.90
18041;DHT22;9145;48.588;9.250;2023-08-08T15:05:34;21.50;99.90
18041;DHT22;9145;48.588;9.250;2023-08-08T15:08:01;21.50;99.90
18041;DHT22;9145;48.588;9.250;2023-08-08T15:10:28;21.80;99.90
18041;DHT22;9145;48.588;9.250;2023-08-08T15:12:56;22.10;99.90
18041;DHT22;9145;48.588;9.250;2023-08-08T15:15:23;22.50;99.90
18041;DHT22;9145;48.588;9.250;2023-08-08T15:17:53;23.00;99.90
18041;DHT22;9145;48.588;9.250;2023-08-08T15:20:19;22.90;99.90
18041;DHT22;9145;48.588;9.250;2023-08-08T15:22:46;22.60;99.90
18041;DHT22;9145;48.588;9.250;2023-08-08T15:25:13;22.30;99.90
18041;DHT22;9145;48.588;9.250;2023-08-08T15:27:40;21.90;99.90
18041;DHT22;9145;48.588;9.250;2023-08-08T15:30:09;21.70;99.90
18041;DHT22;9145;48.588;9.250;2023-08-08T15:32:36;21.50;99.90
18041;DHT22;9145;48.588;9.250;2023-08-08T15:35:03;21.40;99.90
18041;DHT22;9145;48.588;9.250;2023-08-08T15:37:31;21.20;99.90
18041;DHT22;9145;48.588;9.250;2023-08-08T15:39:58;21.10;99.90
18041;DHT22;9145;48.588;9.250;2023-08-08T15:42:24;21.10;99.90
18041;DHT22;9145;48.588;9.250;2023-08-08T15:44:51;21.00;99.90
18041;DHT22;9145;48.588;9.250;2023-08-08T15:47:19;21.00;99.90